Ana Sayfa
METAR-TAF:

METAR-TAF

Havaalanları :

Menominee-Marinette Twin County Airport

Menominee, Michigan, Amerika Birleşik Devletleri

Enlem: 45-08N, Boylam: 087-38W, yükseklik: 191 m

Güncel hava durumu gözlemi

Rapor saat 10:56 UTC de 1 saat ve 2 dakika önce yapıldı.
Rüzgar güneybatıdan 11 kt ve 17 kt'a kadar ani rüzgarlar
Sıcaklık -6°C
Nem 86%
Basınç 1018 hPa
Görüş mesafesi: 16.1 km
Açık gökyüzü

METAR: KMNM 221056Z AUTO 23011G17KT 10SM CLR M06/M08 A3005 RMK AO2 SLP187 T10561083 FZRANO $

Saat: 06:58 (11:58 UTC)


TAF: eksik

4.000'den fazla havaalanı için hava durumu gözlemleri ve tahminleri (METAR ve TAF raporları).

Kullanılabilir istasyonlar harita üzerinde sarı ve kırmızı noktalarla gösterilir.

İstasyonun adını görmek için fareyi noktanın üzerinde gezdirin.

Sonrasında hava gözlem ve tahminlerini görmek için tıklayın.

Haritayı değiştirmek için: yaklaştırmak için siyah artı işaretli yeşil düğmeye ve uzaklaştırmak için de eksi işaretli düğmeye hızla tıklayın; bitişik haritalar için yeşil okları kullanın.


METAR-TAF: